createdAt,value
2022-08-09T00:00:57.398Z,27.70
2022-08-09T00:04:08.569Z,27.80
2022-08-09T00:06:19.163Z,27.80
2022-08-09T00:08:51.807Z,27.80
2022-08-09T00:11:25.234Z,27.70
2022-08-09T00:13:55.611Z,27.80
2022-08-09T00:16:25.928Z,27.70
2022-08-09T00:18:54.167Z,27.80
2022-08-09T00:21:21.936Z,27.80
2022-08-09T00:23:55.287Z,27.80
2022-08-09T00:26:32.512Z,27.80
2022-08-09T00:29:01.952Z,27.70
2022-08-09T00:31:59.431Z,27.70
2022-08-09T00:34:19.538Z,27.70
2022-08-09T00:36:50.888Z,27.80
2022-08-09T00:40:13.865Z,27.70
2022-08-09T00:44:11.020Z,27.70
2022-08-09T00:44:55.413Z,27.80
2022-08-09T00:47:24.692Z,27.80
2022-08-09T00:49:55.216Z,27.80
2022-08-09T00:52:30.370Z,27.80
2022-08-09T00:55:01.160Z,27.80
2022-08-09T00:57:34.228Z,27.80
2022-08-09T01:00:21.053Z,27.80
2022-08-09T01:02:54.516Z,27.80
2022-08-09T01:05:51.761Z,27.80
2022-08-09T01:08:29.101Z,27.80
2022-08-09T01:11:15.018Z,27.80
2022-08-09T01:13:58.701Z,27.70
2022-08-09T01:16:33.254Z,27.70
2022-08-09T01:19:16.890Z,27.70
2022-08-09T01:22:23.850Z,27.70
2022-08-09T01:25:00.897Z,27.70
2022-08-09T01:27:32.627Z,27.60
2022-08-09T01:30:08.184Z,27.60
2022-08-09T01:32:38.743Z,27.60
2022-08-09T01:35:28.456Z,27.60
2022-08-09T01:38:10.784Z,27.60
2022-08-09T01:40:53.060Z,27.50
2022-08-09T01:43:50.422Z,27.50
2022-08-09T01:46:24.727Z,27.50
2022-08-09T01:48:57.414Z,27.40
2022-08-09T01:51:32.324Z,27.40
2022-08-09T01:54:04.173Z,27.40
2022-08-09T01:56:33.968Z,27.40
2022-08-09T01:59:09.606Z,27.40
2022-08-09T02:01:59.013Z,27.40
2022-08-09T02:04:31.682Z,27.40
2022-08-09T02:07:18.546Z,27.40
2022-08-09T02:10:29.638Z,27.30
2022-08-09T02:13:00.979Z,27.30
2022-08-09T02:15:48.800Z,27.20
2022-08-09T02:18:23.028Z,27.20
2022-08-09T02:20:57.820Z,27.20
2022-08-09T02:23:43.189Z,27.20
2022-08-09T02:26:27.044Z,27.20
2022-08-09T02:29:01.693Z,27.10
2022-08-09T02:31:37.454Z,27.20
2022-08-09T02:34:40.873Z,27.20
2022-08-09T02:37:12.188Z,27.10
2022-08-09T02:39:49.639Z,27.10
2022-08-09T02:42:24.880Z,27.10
2022-08-09T02:44:59.020Z,27.10
2022-08-09T02:47:33.824Z,27.00
2022-08-09T02:50:21.370Z,27.00
2022-08-09T02:53:01.298Z,27.00
2022-08-09T02:55:46.221Z,26.90
2022-08-09T02:58:35.874Z,26.90
2022-08-09T03:01:08.303Z,26.90
2022-08-09T03:04:16.813Z,26.90
2022-08-09T03:06:27.532Z,26.90
2022-08-09T03:08:56.502Z,26.80
2022-08-09T03:11:29.607Z,26.80
2022-08-09T03:14:13.491Z,26.80
2022-08-09T03:16:45.286Z,26.70
2022-08-09T03:19:59.684Z,26.70
2022-08-09T03:22:12.293Z,26.70
2022-08-09T03:25:05.772Z,26.70
2022-08-09T03:27:45.202Z,26.80
2022-08-09T03:30:29.495Z,26.70
2022-08-09T03:33:05.773Z,26.70
2022-08-09T03:36:11.220Z,26.70
2022-08-09T03:38:30.539Z,26.60
2022-08-09T03:40:58.418Z,26.60
2022-08-09T03:43:31.793Z,26.50
2022-08-09T03:46:20.075Z,26.50
2022-08-09T03:48:55.063Z,26.50
2022-08-09T03:51:56.577Z,26.50
2022-08-09T03:54:14.129Z,26.50
2022-08-09T03:56:42.146Z,26.50
2022-08-09T03:59:17.131Z,26.50
2022-08-09T04:01:50.730Z,26.40
2022-08-09T04:04:18.910Z,26.40
2022-08-09T04:06:49.104Z,26.40
2022-08-09T04:09:48.057Z,26.40
2022-08-09T04:12:30.669Z,26.50
2022-08-09T04:15:01.372Z,26.40
2022-08-09T04:17:30.276Z,26.40
2022-08-09T04:19:58.902Z,26.40
2022-08-09T04:22:30.485Z,26.40
2022-08-09T04:24:59.920Z,26.40
2022-08-09T04:27:29.115Z,26.40
2022-08-09T04:29:56.858Z,26.30
2022-08-09T04:32:33.675Z,26.40
2022-08-09T04:35:01.822Z,26.40
2022-08-09T04:37:45.145Z,26.40
2022-08-09T04:40:19.242Z,26.30
2022-08-09T04:42:56.720Z,26.30
2022-08-09T04:45:24.495Z,26.30
2022-08-09T04:48:02.140Z,26.30
2022-08-09T04:50:35.158Z,26.30
2022-08-09T04:53:13.215Z,26.30
2022-08-09T04:55:58.200Z,26.30
2022-08-09T04:58:28.972Z,26.40
2022-08-09T05:00:57.576Z,26.40
2022-08-09T05:03:39.898Z,26.50
2022-08-09T05:06:18.178Z,26.50
2022-08-09T05:09:00.291Z,26.50
2022-08-09T05:11:30.385Z,26.60
2022-08-09T05:13:59.984Z,26.60
2022-08-09T05:16:31.717Z,26.60
2022-08-09T05:19:00.400Z,26.60
2022-08-09T05:21:29.929Z,26.70
2022-08-09T05:24:02.087Z,26.70
2022-08-09T05:26:41.078Z,26.70
2022-08-09T05:29:22.122Z,26.80
2022-08-09T05:31:58.892Z,26.70
2022-08-09T05:34:32.338Z,26.70
2022-08-09T05:37:04.952Z,26.80
2022-08-09T05:39:43.379Z,26.80
2022-08-09T05:42:17.329Z,26.90
2022-08-09T05:44:53.416Z,27.00
2022-08-09T05:47:22.857Z,27.00
2022-08-09T05:50:30.096Z,27.00
2022-08-09T05:52:44.406Z,27.10
2022-08-09T05:55:21.183Z,27.20
2022-08-09T05:57:56.783Z,27.20
2022-08-09T06:00:29.136Z,27.30
2022-08-09T06:03:02.378Z,27.40
2022-08-09T06:05:50.110Z,27.50
2022-08-09T06:08:24.420Z,27.50
2022-08-09T06:10:53.969Z,27.50
2022-08-09T06:13:21.692Z,27.50
2022-08-09T06:15:51.396Z,27.50
2022-08-09T06:18:24.859Z,27.50
2022-08-09T06:20:57.107Z,27.50
2022-08-09T06:23:55.801Z,27.60
2022-08-09T06:26:21.053Z,27.60
2022-08-09T06:29:00.710Z,27.60
2022-08-09T06:31:40.073Z,27.60
2022-08-09T06:34:22.592Z,27.60
2022-08-09T06:36:59.103Z,27.60
2022-08-09T06:39:49.338Z,27.60
2022-08-09T06:42:24.564Z,27.60
2022-08-09T06:44:57.348Z,27.60
2022-08-09T06:47:25.472Z,27.60
2022-08-09T06:50:14.848Z,27.60
2022-08-09T06:52:48.724Z,27.60
2022-08-09T06:55:19.021Z,27.60
2022-08-09T06:58:02.643Z,27.60
2022-08-09T07:00:51.955Z,27.60
2022-08-09T07:03:27.857Z,27.60
2022-08-09T07:06:03.789Z,27.60
2022-08-09T07:08:37.397Z,27.70
2022-08-09T07:11:07.812Z,27.60
2022-08-09T07:13:45.189Z,27.70
2022-08-09T07:16:39.356Z,27.70
2022-08-09T07:19:15.450Z,27.70
2022-08-09T07:21:55.984Z,27.80
2022-08-09T07:24:32.624Z,27.80
2022-08-09T07:27:21.092Z,27.90
2022-08-09T07:29:57.208Z,28.00
2022-08-09T07:32:31.825Z,28.10
2022-08-09T07:35:12.262Z,28.10
2022-08-09T07:37:43.383Z,28.20
2022-08-09T07:40:20.582Z,28.30
2022-08-09T07:42:58.640Z,28.20
2022-08-09T07:45:37.336Z,28.20
2022-08-09T07:48:06.772Z,28.20
2022-08-09T07:50:36.602Z,28.20
2022-08-09T07:53:05.413Z,28.10
2022-08-09T07:55:41.643Z,28.20
2022-08-09T07:58:21.675Z,28.10
2022-08-09T08:00:58.941Z,28.10
2022-08-09T08:03:36.998Z,28.10
2022-08-09T08:06:05.313Z,28.10
2022-08-09T08:09:00.147Z,28.20
2022-08-09T08:12:24.126Z,28.30
2022-08-09T08:14:07.732Z,28.50
2022-08-09T08:16:36.464Z,28.60
2022-08-09T08:19:07.086Z,28.60
2022-08-09T08:21:34.610Z,28.70
2022-08-09T08:24:11.979Z,28.80
2022-08-09T08:26:56.132Z,28.90
2022-08-09T08:29:28.636Z,29.00
2022-08-09T08:32:07.198Z,28.90
2022-08-09T08:34:39.898Z,28.80
2022-08-09T08:37:11.489Z,28.80
2022-08-09T08:39:44.437Z,28.80
2022-08-09T08:42:12.473Z,28.80
2022-08-09T08:44:42.709Z,28.90
2022-08-09T08:47:13.447Z,28.90
2022-08-09T08:49:48.534Z,29.00
2022-08-09T08:52:57.708Z,29.00
2022-08-09T08:55:10.815Z,29.00
2022-08-09T08:57:41.437Z,29.20
2022-08-09T09:00:16.905Z,29.30
2022-08-09T09:02:52.878Z,29.30
2022-08-09T09:05:33.177Z,29.40
2022-08-09T09:08:29.778Z,29.40
2022-08-09T09:11:05.517Z,29.50
2022-08-09T09:13:54.836Z,29.60
2022-08-09T09:16:34.185Z,29.70
2022-08-09T09:19:40.918Z,29.80
2022-08-09T09:22:04.326Z,29.80
2022-08-09T09:24:37.817Z,29.80
2022-08-09T09:27:07.695Z,29.70
2022-08-09T09:30:12.068Z,29.70
2022-08-09T09:32:35.193Z,29.70
2022-08-09T09:35:10.254Z,29.70
2022-08-09T09:37:40.144Z,29.80
2022-08-09T09:40:11.551Z,30.00
2022-08-09T09:42:43.059Z,30.10
2022-08-09T09:45:14.471Z,30.20
2022-08-09T09:47:58.278Z,30.50
2022-08-09T09:50:50.751Z,30.70
2022-08-09T09:53:34.442Z,30.70
2022-08-09T09:56:31.251Z,30.70
2022-08-09T09:58:59.315Z,30.60
2022-08-09T10:01:31.444Z,30.60
2022-08-09T10:04:16.231Z,30.70
2022-08-09T10:06:51.957Z,30.70
2022-08-09T10:09:23.830Z,30.80
2022-08-09T10:12:26.799Z,30.80
2022-08-09T10:14:48.095Z,30.80
2022-08-09T10:17:50.399Z,30.60
2022-08-09T10:20:33.111Z,30.50
2022-08-09T10:23:21.886Z,30.50
2022-08-09T10:26:08.021Z,30.60
2022-08-09T10:28:40.136Z,30.70
2022-08-09T10:34:10.068Z,31.00
2022-08-09T10:36:50.165Z,31.20
2022-08-09T10:39:23.296Z,31.30
2022-08-09T10:41:55.961Z,31.40
2022-08-09T10:44:28.466Z,31.40
2022-08-09T10:47:28.206Z,31.50
2022-08-09T10:50:03.392Z,31.60
2022-08-09T10:52:51.566Z,31.70
2022-08-09T10:55:20.703Z,31.70
2022-08-09T10:57:51.972Z,31.90
2022-08-09T11:00:35.335Z,31.90
2022-08-09T11:03:19.182Z,31.90
2022-08-09T11:06:22.987Z,32.00
2022-08-09T11:08:51.813Z,32.10
2022-08-09T11:11:21.709Z,32.20
2022-08-09T11:14:28.377Z,32.10
2022-08-09T11:16:59.785Z,32.00
2022-08-09T11:20:11.927Z,32.10
2022-08-09T11:22:45.020Z,32.20
2022-08-09T11:25:14.858Z,32.30
2022-08-09T11:28:05.590Z,32.30
2022-08-09T11:30:37.797Z,32.30
2022-08-09T11:33:17.320Z,32.20
2022-08-09T11:35:50.122Z,32.30
2022-08-09T11:38:32.571Z,32.30
2022-08-09T11:41:16.471Z,32.40
2022-08-09T11:43:48.950Z,32.50
2022-08-09T11:46:26.749Z,32.40
2022-08-09T11:49:01.040Z,32.40
2022-08-09T11:52:59.106Z,32.30
2022-08-09T11:55:51.755Z,32.30
2022-08-09T11:58:15.247Z,32.40
2022-08-09T12:01:37.224Z,32.40
2022-08-09T12:04:05.299Z,32.30
2022-08-09T12:06:35.066Z,32.40
2022-08-09T12:09:19.164Z,32.50
2022-08-09T12:12:05.232Z,32.60
2022-08-09T12:14:40.433Z,32.80
2022-08-09T12:17:33.957Z,32.90
2022-08-09T12:20:21.875Z,33.10
2022-08-09T12:22:56.459Z,33.20
2022-08-09T12:25:36.061Z,33.30
2022-08-09T12:28:59.795Z,33.40
2022-08-09T12:31:01.665Z,33.40
2022-08-09T12:33:50.807Z,33.40
2022-08-09T12:36:31.460Z,33.40
2022-08-09T12:39:00.994Z,33.50
2022-08-09T12:41:38.107Z,33.50
2022-08-09T12:44:09.804Z,33.40
2022-08-09T12:46:49.046Z,33.20
2022-08-09T12:49:18.024Z,33.10
2022-08-09T12:52:01.255Z,33.10
2022-08-09T12:55:03.030Z,33.10
2022-08-09T12:57:41.714Z,33.10
2022-08-09T13:00:12.346Z,33.30
2022-08-09T13:02:49.257Z,33.20
2022-08-09T13:05:25.490Z,33.30
2022-08-09T13:08:16.473Z,33.30
2022-08-09T13:11:00.040Z,33.40
2022-08-09T13:13:37.970Z,33.40
2022-08-09T13:16:21.193Z,33.40
2022-08-09T13:18:53.469Z,33.50
2022-08-09T13:22:45.602Z,33.50
2022-08-09T13:24:42.374Z,33.60
2022-08-09T13:27:01.156Z,33.60
2022-08-09T13:30:02.848Z,33.60
2022-08-09T13:32:28.842Z,33.60
2022-08-09T13:34:56.500Z,33.50
2022-08-09T13:37:50.725Z,33.30
2022-08-09T13:41:45.743Z,33.30
2022-08-09T13:42:59.972Z,33.30
2022-08-09T13:45:31.952Z,33.30
2022-08-09T13:48:18.516Z,33.20
2022-08-09T13:50:46.151Z,33.20
2022-08-09T13:53:16.770Z,33.20
2022-08-09T13:55:44.873Z,33.10
2022-08-09T13:58:15.353Z,33.00
2022-08-09T14:00:50.500Z,33.00
2022-08-09T14:04:01.106Z,33.00
2022-08-09T14:06:19.352Z,33.00
2022-08-09T14:08:54.258Z,33.00
2022-08-09T14:11:23.032Z,33.00
2022-08-09T14:14:22.822Z,33.00
2022-08-09T14:16:38.184Z,33.10
2022-08-09T14:19:07.932Z,33.20
2022-08-09T14:21:35.437Z,33.10
2022-08-09T14:24:10.187Z,33.10
2022-08-09T14:26:38.136Z,33.00
2022-08-09T14:29:25.597Z,33.00
2022-08-09T14:31:55.414Z,33.00
2022-08-09T14:34:31.263Z,33.00
2022-08-09T14:37:02.238Z,33.00
2022-08-09T14:39:47.134Z,33.00
2022-08-09T14:42:30.425Z,33.00
2022-08-09T14:46:39.493Z,33.00
2022-08-09T14:48:00.186Z,33.00
2022-08-09T14:50:31.588Z,33.00
2022-08-09T14:53:01.131Z,32.90
2022-08-09T14:55:32.565Z,32.90
2022-08-09T14:58:04.719Z,32.90
2022-08-09T15:00:36.068Z,32.90
2022-08-09T15:03:06.897Z,32.80
2022-08-09T15:05:36.641Z,32.80
2022-08-09T15:08:05.555Z,32.80
2022-08-09T15:10:35.137Z,32.80
2022-08-09T15:13:04.397Z,32.80
2022-08-09T15:15:34.450Z,32.80
2022-08-09T15:18:07.586Z,32.80
2022-08-09T15:21:54.800Z,32.80
2022-08-09T15:24:01.873Z,32.60
2022-08-09T15:26:19.055Z,32.50
2022-08-09T15:28:58.366Z,32.50
2022-08-09T15:31:40.689Z,32.50
2022-08-09T15:34:33.408Z,32.50
2022-08-09T15:36:58.954Z,32.50
2022-08-09T15:39:43.959Z,32.50
2022-08-09T15:42:15.008Z,32.50
2022-08-09T15:44:42.488Z,32.40
2022-08-09T15:47:14.188Z,32.40
2022-08-09T15:50:04.095Z,32.30
2022-08-09T15:52:34.330Z,32.30
2022-08-09T15:55:04.342Z,32.30
2022-08-09T15:57:34.681Z,32.30
2022-08-09T16:00:17.094Z,32.20
2022-08-09T16:02:56.447Z,32.20
2022-08-09T16:05:47.096Z,32.20
2022-08-09T16:08:29.995Z,32.20
2022-08-09T16:11:03.580Z,32.10
2022-08-09T16:14:03.275Z,32.10
2022-08-09T16:16:26.219Z,32.10
2022-08-09T16:18:55.996Z,32.10
2022-08-09T16:21:25.512Z,32.00
2022-08-09T16:23:58.837Z,32.00
2022-08-09T16:26:35.464Z,32.00
2022-08-09T16:29:10.509Z,32.00
2022-08-09T16:32:17.965Z,31.90
2022-08-09T16:34:29.126Z,31.90
2022-08-09T16:36:57.024Z,31.80
2022-08-09T16:39:26.024Z,31.80
2022-08-09T16:42:03.104Z,31.80
2022-08-09T16:44:32.577Z,31.70
2022-08-09T16:47:04.095Z,31.60
2022-08-09T16:50:31.614Z,31.50
2022-08-09T16:52:35.356Z,31.50
2022-08-09T16:55:03.202Z,31.50
2022-08-09T16:58:08.101Z,31.50
2022-08-09T17:00:18.472Z,31.50
2022-08-09T17:02:46.301Z,31.50
2022-08-09T17:05:19.870Z,31.40
2022-08-09T17:08:45.319Z,31.40
2022-08-09T17:10:35.252Z,31.30
2022-08-09T17:13:06.266Z,31.20
2022-08-09T17:16:00.072Z,31.20
2022-08-09T17:18:27.151Z,31.20
2022-08-09T17:20:57.895Z,31.20
2022-08-09T17:24:20.169Z,31.20
2022-08-09T17:26:12.685Z,31.10
2022-08-09T17:28:40.138Z,31.10
2022-08-09T17:31:08.089Z,31.10
2022-08-09T17:33:37.616Z,31.00
2022-08-09T17:36:05.749Z,31.00
2022-08-09T17:38:39.559Z,31.00
2022-08-09T17:41:09.016Z,31.00
2022-08-09T17:43:37.277Z,30.90
2022-08-09T17:46:09.468Z,30.90
2022-08-09T17:48:40.059Z,30.90
2022-08-09T17:51:18.412Z,30.90
2022-08-09T17:53:54.682Z,30.90
2022-08-09T17:56:35.664Z,30.80
2022-08-09T17:59:09.555Z,30.80
2022-08-09T18:02:06.607Z,30.80
2022-08-09T18:04:31.649Z,30.70
2022-08-09T18:07:00.256Z,30.70
2022-08-09T18:09:40.011Z,30.70
2022-08-09T18:12:17.557Z,30.70
2022-08-09T18:14:53.594Z,30.70
2022-08-09T18:17:27.341Z,30.70
2022-08-09T18:20:53.737Z,30.70
2022-08-09T18:23:04.946Z,30.50
2022-08-09T18:25:50.300Z,30.50
2022-08-09T18:30:38.915Z,30.50
2022-08-09T18:31:10.543Z,30.50
2022-08-09T18:33:38.022Z,30.40
2022-08-09T18:36:14.080Z,30.40
2022-08-09T18:38:42.084Z,30.40
2022-08-09T18:41:09.521Z,30.30
2022-08-09T18:43:36.961Z,30.30
2022-08-09T18:46:47.640Z,30.20
2022-08-09T18:49:08.023Z,30.20
2022-08-09T18:51:38.445Z,30.20
2022-08-09T18:54:29.915Z,30.10
2022-08-09T18:57:05.290Z,30.10
2022-08-09T18:59:37.555Z,30.10
2022-08-09T19:02:17.764Z,30.00
2022-08-09T19:04:47.468Z,30.00
2022-08-09T19:07:28.162Z,29.90
2022-08-09T19:10:14.514Z,29.90
2022-08-09T19:12:50.213Z,29.90
2022-08-09T19:15:22.488Z,29.80
2022-08-09T19:17:54.929Z,29.80
2022-08-09T19:20:25.846Z,29.70
2022-08-09T19:22:54.548Z,29.70
2022-08-09T19:25:41.294Z,29.70
2022-08-09T19:28:13.380Z,29.70
2022-08-09T19:30:44.620Z,29.70
2022-08-09T19:33:19.347Z,29.70
2022-08-09T19:35:56.460Z,29.70
2022-08-09T19:38:27.324Z,29.60
2022-08-09T19:40:57.579Z,29.50
2022-08-09T19:44:00.275Z,29.50
2022-08-09T19:46:15.876Z,29.40
2022-08-09T19:49:02.655Z,29.30
2022-08-09T19:51:31.397Z,29.30
2022-08-09T19:54:02.327Z,29.20
2022-08-09T19:56:29.833Z,29.10
2022-08-09T19:59:39.816Z,29.10
2022-08-09T20:02:00.510Z,29.00
2022-08-09T20:04:40.378Z,29.10
2022-08-09T20:07:15.926Z,29.10
2022-08-09T20:09:48.902Z,29.10
2022-08-09T20:12:22.345Z,29.20
2022-08-09T20:14:57.777Z,29.20
2022-08-09T20:17:27.058Z,29.20
2022-08-09T20:20:09.413Z,29.20
2022-08-09T20:22:44.711Z,29.10
2022-08-09T20:25:13.989Z,29.10
2022-08-09T20:27:51.042Z,29.10
2022-08-09T20:30:23.690Z,29.10
2022-08-09T20:32:52.632Z,29.00
2022-08-09T20:35:21.271Z,29.00
2022-08-09T20:38:21.509Z,29.00
2022-08-09T20:40:37.123Z,29.00
2022-08-09T20:43:18.273Z,29.00
2022-08-09T20:46:01.406Z,29.00
2022-08-09T20:48:40.708Z,29.00
2022-08-09T20:51:19.332Z,28.90
2022-08-09T20:53:48.952Z,28.90
2022-08-09T20:56:21.402Z,28.80
2022-08-09T20:58:50.400Z,28.80
2022-08-09T21:01:34.973Z,28.70
2022-08-09T21:05:52.592Z,28.70
2022-08-09T21:06:56.857Z,28.70
2022-08-09T21:09:32.825Z,28.70
2022-08-09T21:14:46.159Z,28.60
2022-08-09T21:18:22.214Z,28.50
2022-08-09T21:20:25.366Z,28.40
2022-08-09T21:22:53.969Z,28.40
2022-08-09T21:25:44.115Z,28.30
2022-08-09T21:28:34.360Z,28.30
2022-08-09T21:31:17.171Z,28.20
2022-08-09T21:33:52.877Z,28.20
2022-08-09T21:36:25.927Z,28.20
2022-08-09T21:38:59.982Z,28.10
2022-08-09T21:42:00.369Z,28.10
2022-08-09T21:44:33.025Z,28.10
2022-08-09T21:47:04.895Z,28.10
2022-08-09T21:49:40.586Z,28.10
2022-08-09T21:52:18.013Z,28.00
2022-08-09T21:55:02.842Z,28.00
2022-08-09T21:57:39.148Z,28.00
2022-08-09T22:00:32.169Z,27.90
2022-08-09T22:03:04.498Z,27.90
2022-08-09T22:05:36.809Z,27.90
2022-08-09T22:08:13.141Z,27.90
2022-08-09T22:11:05.040Z,27.90
2022-08-09T22:13:34.452Z,27.90
2022-08-09T22:16:09.224Z,27.80
2022-08-09T22:18:54.390Z,27.80
2022-08-09T22:21:24.891Z,27.80
2022-08-09T22:24:01.309Z,27.80
2022-08-09T22:26:34.919Z,27.70
2022-08-09T22:29:09.328Z,27.60
2022-08-09T22:31:50.654Z,27.60
2022-08-09T22:34:26.280Z,27.70
2022-08-09T22:36:58.471Z,27.70
2022-08-09T22:39:55.928Z,27.70
2022-08-09T22:42:21.276Z,27.70
2022-08-09T22:45:00.128Z,27.70
2022-08-09T22:48:14.953Z,27.70
2022-08-09T22:50:28.138Z,27.60
2022-08-09T22:52:58.378Z,27.60
2022-08-09T22:55:39.197Z,27.60
2022-08-09T22:58:20.166Z,27.60
2022-08-09T23:00:58.571Z,27.50
2022-08-09T23:04:02.278Z,27.50
2022-08-09T23:06:14.163Z,27.50
2022-08-09T23:08:44.730Z,27.50
2022-08-09T23:11:17.092Z,27.40
2022-08-09T23:13:52.668Z,27.40
2022-08-09T23:16:22.081Z,27.40
2022-08-09T23:18:49.584Z,27.30
2022-08-09T23:21:26.080Z,27.30
2022-08-09T23:24:06.467Z,27.20
2022-08-09T23:26:36.167Z,27.10
2022-08-09T23:29:05.188Z,27.10
2022-08-09T23:31:33.277Z,27.10
2022-08-09T23:34:01.005Z,27.10
2022-08-09T23:36:30.018Z,27.00
2022-08-09T23:38:57.387Z,27.00
2022-08-09T23:41:27.816Z,27.00
2022-08-09T23:44:01.208Z,27.10
2022-08-09T23:46:30.043Z,27.00
2022-08-09T23:48:58.794Z,27.00
2022-08-09T23:51:27.324Z,27.00
2022-08-09T23:54:02.802Z,27.00
2022-08-09T23:56:52.243Z,27.00
2022-08-09T23:59:21.121Z,26.90
